sensor_id;sensor_type;location;lat;lon;timestamp;P1;durP1;ratioP1;P2;durP2;ratioP2
53281;SDS011;39167;52.794;6.892;2023-04-03T00:01:32;6.35;;;1.45;;
53281;SDS011;39167;52.794;6.892;2023-04-03T00:03:58;4.38;;;1.13;;
53281;SDS011;39167;52.794;6.892;2023-04-03T00:06:24;4.68;;;1.10;;
53281;SDS011;39167;52.794;6.892;2023-04-03T00:08:51;4.13;;;1.10;;
53281;SDS011;39167;52.794;6.892;2023-04-03T00:11:17;2.65;;;0.95;;
53281;SDS011;39167;52.794;6.892;2023-04-03T00:13:44;4.60;;;1.42;;
53281;SDS011;39167;52.794;6.892;2023-04-03T00:16:10;3.60;;;1.33;;
53281;SDS011;39167;52.794;6.892;2023-04-03T00:18:37;4.35;;;1.25;;
53281;SDS011;39167;52.794;6.892;2023-04-03T00:21:03;3.65;;;1.60;;
53281;SDS011;39167;52.794;6.892;2023-04-03T00:23:30;3.90;;;1.35;;
53281;SDS011;39167;52.794;6.892;2023-04-03T00:25:56;5.80;;;1.38;;
53281;SDS011;39167;52.794;6.892;2023-04-03T00:28:22;4.47;;;1.08;;
53281;SDS011;39167;52.794;6.892;2023-04-03T00:30:48;5.13;;;1.33;;
53281;SDS011;39167;52.794;6.892;2023-04-03T00:33:14;5.00;;;1.45;;
53281;SDS011;39167;52.794;6.892;2023-04-03T00:35:40;4.50;;;1.38;;
53281;SDS011;39167;52.794;6.892;2023-04-03T00:38:06;2.88;;;1.15;;
53281;SDS011;39167;52.794;6.892;2023-04-03T00:40:33;3.78;;;1.40;;
53281;SDS011;39167;52.794;6.892;2023-04-03T00:43:01;5.53;;;1.48;;
53281;SDS011;39167;52.794;6.892;2023-04-03T00:45:29;4.38;;;1.20;;
53281;SDS011;39167;52.794;6.892;2023-04-03T00:48:05;3.95;;;1.20;;
53281;SDS011;39167;52.794;6.892;2023-04-03T00:50:33;3.63;;;1.15;;
53281;SDS011;39167;52.794;6.892;2023-04-03T00:53:01;4.28;;;1.30;;
53281;SDS011;39167;52.794;6.892;2023-04-03T00:55:29;5.30;;;1.80;;
53281;SDS011;39167;52.794;6.892;2023-04-03T00:57:56;4.10;;;1.50;;
53281;SDS011;39167;52.794;6.892;2023-04-03T01:00:23;4.35;;;1.40;;
53281;SDS011;39167;52.794;6.892;2023-04-03T01:02:50;2.85;;;1.13;;
53281;SDS011;39167;52.794;6.892;2023-04-03T01:05:17;3.67;;;1.50;;
53281;SDS011;39167;52.794;6.892;2023-04-03T01:07:44;3.55;;;1.30;;
53281;SDS011;39167;52.794;6.892;2023-04-03T01:10:12;6.05;;;1.50;;
53281;SDS011;39167;52.794;6.892;2023-04-03T01:12:41;5.38;;;1.70;;
53281;SDS011;39167;52.794;6.892;2023-04-03T01:15:10;4.53;;;1.50;;
53281;SDS011;39167;52.794;6.892;2023-04-03T01:25:22;5.70;;;1.85;;
53281;SDS011;39167;52.794;6.892;2023-04-03T01:27:48;6.68;;;1.75;;
53281;SDS011;39167;52.794;6.892;2023-04-03T01:30:14;5.43;;;2.10;;
53281;SDS011;39167;52.794;6.892;2023-04-03T01:32:43;7.65;;;1.92;;
53281;SDS011;39167;52.794;6.892;2023-04-03T01:35:09;8.23;;;1.73;;
53281;SDS011;39167;52.794;6.892;2023-04-03T01:37:35;5.55;;;2.00;;
53281;SDS011;39167;52.794;6.892;2023-04-03T01:40:02;7.53;;;2.38;;
53281;SDS011;39167;52.794;6.892;2023-04-03T01:42:28;7.05;;;2.50;;
53281;SDS011;39167;52.794;6.892;2023-04-03T01:44:54;6.20;;;1.88;;
53281;SDS011;39167;52.794;6.892;2023-04-03T01:47:20;6.63;;;2.42;;
53281;SDS011;39167;52.794;6.892;2023-04-03T01:49:47;8.52;;;1.92;;
53281;SDS011;39167;52.794;6.892;2023-04-03T01:52:12;5.53;;;2.25;;
53281;SDS011;39167;52.794;6.892;2023-04-03T01:54:38;6.15;;;2.17;;
53281;SDS011;39167;52.794;6.892;2023-04-03T01:57:04;7.15;;;1.92;;
53281;SDS011;39167;52.794;6.892;2023-04-03T01:59:30;4.88;;;1.90;;
53281;SDS011;39167;52.794;6.892;2023-04-03T02:01:56;4.78;;;1.90;;
53281;SDS011;39167;52.794;6.892;2023-04-03T02:04:22;5.55;;;2.03;;
53281;SDS011;39167;52.794;6.892;2023-04-03T02:06:48;6.03;;;1.60;;
53281;SDS011;39167;52.794;6.892;2023-04-03T02:09:13;5.88;;;1.83;;
53281;SDS011;39167;52.794;6.892;2023-04-03T02:11:39;7.45;;;2.15;;
53281;SDS011;39167;52.794;6.892;2023-04-03T02:14:05;4.95;;;1.92;;
53281;SDS011;39167;52.794;6.892;2023-04-03T02:16:31;10.32;;;2.28;;
53281;SDS011;39167;52.794;6.892;2023-04-03T02:18:57;4.85;;;2.17;;
53281;SDS011;39167;52.794;6.892;2023-04-03T02:21:22;6.18;;;2.10;;
53281;SDS011;39167;52.794;6.892;2023-04-03T02:23:48;6.50;;;2.40;;
53281;SDS011;39167;52.794;6.892;2023-04-03T02:26:14;7.63;;;2.60;;
53281;SDS011;39167;52.794;6.892;2023-04-03T02:28:42;8.10;;;2.00;;
53281;SDS011;39167;52.794;6.892;2023-04-03T02:31:08;5.07;;;2.03;;
53281;SDS011;39167;52.794;6.892;2023-04-03T02:33:34;5.38;;;2.33;;
53281;SDS011;39167;52.794;6.892;2023-04-03T02:36:02;7.72;;;2.22;;
53281;SDS011;39167;52.794;6.892;2023-04-03T02:38:29;7.47;;;2.25;;
53281;SDS011;39167;52.794;6.892;2023-04-03T02:40:59;5.30;;;2.13;;
53281;SDS011;39167;52.794;6.892;2023-04-03T02:43:28;9.98;;;1.90;;
53281;SDS011;39167;52.794;6.892;2023-04-03T02:45:53;5.68;;;1.83;;
53281;SDS011;39167;52.794;6.892;2023-04-03T02:48:19;7.70;;;2.25;;
53281;SDS011;39167;52.794;6.892;2023-04-03T02:50:45;7.88;;;2.13;;
53281;SDS011;39167;52.794;6.892;2023-04-03T02:53:11;5.35;;;1.98;;
53281;SDS011;39167;52.794;6.892;2023-04-03T02:55:36;7.93;;;2.35;;
53281;SDS011;39167;52.794;6.892;2023-04-03T02:58:02;5.55;;;2.30;;
53281;SDS011;39167;52.794;6.892;2023-04-03T03:00:28;6.38;;;1.95;;
53281;SDS011;39167;52.794;6.892;2023-04-03T03:02:55;5.13;;;2.38;;
53281;SDS011;39167;52.794;6.892;2023-04-03T03:05:20;8.38;;;2.40;;
53281;SDS011;39167;52.794;6.892;2023-04-03T03:07:46;9.27;;;2.35;;
53281;SDS011;39167;52.794;6.892;2023-04-03T03:10:12;6.82;;;1.98;;
53281;SDS011;39167;52.794;6.892;2023-04-03T03:12:38;5.68;;;1.98;;
53281;SDS011;39167;52.794;6.892;2023-04-03T03:15:05;8.13;;;2.53;;
53281;SDS011;39167;52.794;6.892;2023-04-03T03:17:32;6.18;;;2.38;;
53281;SDS011;39167;52.794;6.892;2023-04-03T03:19:58;6.22;;;2.03;;
53281;SDS011;39167;52.794;6.892;2023-04-03T03:22:24;5.95;;;2.05;;
53281;SDS011;39167;52.794;6.892;2023-04-03T03:24:51;6.30;;;2.47;;
53281;SDS011;39167;52.794;6.892;2023-04-03T03:27:16;5.05;;;1.98;;
53281;SDS011;39167;52.794;6.892;2023-04-03T03:29:42;6.88;;;2.20;;
53281;SDS011;39167;52.794;6.892;2023-04-03T03:32:08;5.18;;;2.25;;
53281;SDS011;39167;52.794;6.892;2023-04-03T03:34:33;6.97;;;2.20;;
53281;SDS011;39167;52.794;6.892;2023-04-03T03:36:59;6.80;;;2.65;;
53281;SDS011;39167;52.794;6.892;2023-04-03T03:39:25;8.88;;;2.90;;
53281;SDS011;39167;52.794;6.892;2023-04-03T03:41:51;4.00;;;1.80;;
53281;SDS011;39167;52.794;6.892;2023-04-03T03:44:18;7.03;;;2.22;;
53281;SDS011;39167;52.794;6.892;2023-04-03T03:46:44;8.52;;;2.42;;
53281;SDS011;39167;52.794;6.892;2023-04-03T03:49:10;5.57;;;2.20;;
53281;SDS011;39167;52.794;6.892;2023-04-03T03:51:36;7.45;;;1.95;;
53281;SDS011;39167;52.794;6.892;2023-04-03T03:54:03;7.65;;;2.20;;
53281;SDS011;39167;52.794;6.892;2023-04-03T03:56:29;4.45;;;1.90;;
53281;SDS011;39167;52.794;6.892;2023-04-03T03:58:55;7.70;;;2.42;;
53281;SDS011;39167;52.794;6.892;2023-04-03T04:01:21;9.45;;;2.22;;
53281;SDS011;39167;52.794;6.892;2023-04-03T04:03:50;6.82;;;2.50;;
53281;SDS011;39167;52.794;6.892;2023-04-03T04:06:16;7.10;;;2.45;;
53281;SDS011;39167;52.794;6.892;2023-04-03T04:08:42;6.47;;;2.10;;
53281;SDS011;39167;52.794;6.892;2023-04-03T04:11:08;8.45;;;2.33;;
53281;SDS011;39167;52.794;6.892;2023-04-03T04:13:34;5.63;;;2.42;;
53281;SDS011;39167;52.794;6.892;2023-04-03T04:16:00;9.23;;;2.05;;
53281;SDS011;39167;52.794;6.892;2023-04-03T04:18:26;5.80;;;2.35;;
53281;SDS011;39167;52.794;6.892;2023-04-03T04:20:52;9.13;;;2.53;;
53281;SDS011;39167;52.794;6.892;2023-04-03T04:23:18;6.93;;;2.08;;
53281;SDS011;39167;52.794;6.892;2023-04-03T04:25:48;4.47;;;2.00;;
53281;SDS011;39167;52.794;6.892;2023-04-03T04:28:16;7.88;;;2.35;;
53281;SDS011;39167;52.794;6.892;2023-04-03T04:30:42;6.80;;;2.28;;
53281;SDS011;39167;52.794;6.892;2023-04-03T04:33:08;6.97;;;2.42;;
53281;SDS011;39167;52.794;6.892;2023-04-03T04:35:38;7.78;;;2.42;;
53281;SDS011;39167;52.794;6.892;2023-04-03T04:38:06;9.93;;;2.08;;
53281;SDS011;39167;52.794;6.892;2023-04-03T04:40:33;6.90;;;2.45;;
53281;SDS011;39167;52.794;6.892;2023-04-03T04:42:59;7.03;;;2.15;;
53281;SDS011;39167;52.794;6.892;2023-04-03T04:45:25;10.02;;;2.20;;
53281;SDS011;39167;52.794;6.892;2023-04-03T04:47:51;7.18;;;2.05;;
53281;SDS011;39167;52.794;6.892;2023-04-03T04:50:18;6.70;;;1.90;;
53281;SDS011;39167;52.794;6.892;2023-04-03T04:52:43;7.50;;;2.30;;
53281;SDS011;39167;52.794;6.892;2023-04-03T04:55:09;7.15;;;2.15;;
53281;SDS011;39167;52.794;6.892;2023-04-03T04:57:35;7.70;;;2.10;;
53281;SDS011;39167;52.794;6.892;2023-04-03T05:00:02;5.47;;;2.38;;
53281;SDS011;39167;52.794;6.892;2023-04-03T05:02:28;8.23;;;2.47;;
53281;SDS011;39167;52.794;6.892;2023-04-03T05:04:54;7.57;;;2.17;;
53281;SDS011;39167;52.794;6.892;2023-04-03T05:07:19;8.27;;;2.58;;
53281;SDS011;39167;52.794;6.892;2023-04-03T05:09:45;6.35;;;1.85;;
53281;SDS011;39167;52.794;6.892;2023-04-03T05:12:11;6.43;;;2.30;;
53281;SDS011;39167;52.794;6.892;2023-04-03T05:14:37;7.20;;;2.15;;
53281;SDS011;39167;52.794;6.892;2023-04-03T05:17:02;5.40;;;2.10;;
53281;SDS011;39167;52.794;6.892;2023-04-03T05:19:28;7.70;;;2.40;;
53281;SDS011;39167;52.794;6.892;2023-04-03T05:21:54;7.75;;;2.47;;
53281;SDS011;39167;52.794;6.892;2023-04-03T05:24:20;7.53;;;2.40;;
53281;SDS011;39167;52.794;6.892;2023-04-03T05:26:45;8.25;;;2.47;;
53281;SDS011;39167;52.794;6.892;2023-04-03T05:29:11;7.00;;;2.63;;
53281;SDS011;39167;52.794;6.892;2023-04-03T05:31:37;11.27;;;2.88;;
53281;SDS011;39167;52.794;6.892;2023-04-03T05:34:02;7.28;;;2.47;;
53281;SDS011;39167;52.794;6.892;2023-04-03T05:36:28;9.55;;;2.80;;
53281;SDS011;39167;52.794;6.892;2023-04-03T05:38:54;7.35;;;2.58;;
53281;SDS011;39167;52.794;6.892;2023-04-03T05:41:21;8.23;;;3.08;;
53281;SDS011;39167;52.794;6.892;2023-04-03T05:43:47;7.85;;;2.63;;
53281;SDS011;39167;52.794;6.892;2023-04-03T05:46:16;9.25;;;2.22;;
53281;SDS011;39167;52.794;6.892;2023-04-03T05:48:43;6.57;;;2.42;;
53281;SDS011;39167;52.794;6.892;2023-04-03T05:51:14;7.78;;;2.70;;
53281;SDS011;39167;52.794;6.892;2023-04-03T05:53:52;5.60;;;2.40;;
53281;SDS011;39167;52.794;6.892;2023-04-03T05:56:24;7.53;;;2.40;;
53281;SDS011;39167;52.794;6.892;2023-04-03T05:58:50;7.53;;;2.53;;
53281;SDS011;39167;52.794;6.892;2023-04-03T06:01:16;10.73;;;2.47;;
53281;SDS011;39167;52.794;6.892;2023-04-03T06:03:42;9.95;;;2.50;;
53281;SDS011;39167;52.794;6.892;2023-04-03T06:06:07;9.20;;;2.80;;
53281;SDS011;39167;52.794;6.892;2023-04-03T06:08:36;6.18;;;2.55;;
53281;SDS011;39167;52.794;6.892;2023-04-03T06:11:03;7.28;;;2.47;;
53281;SDS011;39167;52.794;6.892;2023-04-03T06:13:29;9.45;;;2.40;;
53281;SDS011;39167;52.794;6.892;2023-04-03T06:15:54;8.20;;;2.53;;
53281;SDS011;39167;52.794;6.892;2023-04-03T06:18:21;9.32;;;2.47;;
53281;SDS011;39167;52.794;6.892;2023-04-03T06:20:47;7.40;;;2.25;;
53281;SDS011;39167;52.794;6.892;2023-04-03T06:23:12;6.97;;;2.72;;
53281;SDS011;39167;52.794;6.892;2023-04-03T06:25:38;7.00;;;2.42;;
53281;SDS011;39167;52.794;6.892;2023-04-03T06:28:04;7.97;;;3.40;;
53281;SDS011;39167;52.794;6.892;2023-04-03T06:30:30;6.97;;;2.70;;
53281;SDS011;39167;52.794;6.892;2023-04-03T06:32:56;8.93;;;2.72;;
53281;SDS011;39167;52.794;6.892;2023-04-03T06:35:22;7.85;;;2.85;;
53281;SDS011;39167;52.794;6.892;2023-04-03T06:37:48;8.73;;;3.00;;
53281;SDS011;39167;52.794;6.892;2023-04-03T06:40:19;8.40;;;2.95;;
53281;SDS011;39167;52.794;6.892;2023-04-03T06:42:47;9.45;;;2.33;;
53281;SDS011;39167;52.794;6.892;2023-04-03T06:45:13;7.00;;;2.83;;
53281;SDS011;39167;52.794;6.892;2023-04-03T06:47:39;5.78;;;2.13;;
53281;SDS011;39167;52.794;6.892;2023-04-03T06:50:05;8.80;;;2.38;;
53281;SDS011;39167;52.794;6.892;2023-04-03T06:52:32;8.07;;;2.20;;
53281;SDS011;39167;52.794;6.892;2023-04-03T06:54:58;6.38;;;2.40;;
53281;SDS011;39167;52.794;6.892;2023-04-03T06:57:24;7.05;;;2.45;;
53281;SDS011;39167;52.794;6.892;2023-04-03T06:59:53;9.15;;;2.80;;
53281;SDS011;39167;52.794;6.892;2023-04-03T07:02:19;9.80;;;2.63;;
53281;SDS011;39167;52.794;6.892;2023-04-03T07:04:46;6.80;;;1.63;;
53281;SDS011;39167;52.794;6.892;2023-04-03T07:07:11;7.47;;;2.17;;
53281;SDS011;39167;52.794;6.892;2023-04-03T07:09:37;6.65;;;1.98;;
53281;SDS011;39167;52.794;6.892;2023-04-03T07:12:03;8.43;;;2.28;;
53281;SDS011;39167;52.794;6.892;2023-04-03T07:14:29;9.48;;;2.10;;
53281;SDS011;39167;52.794;6.892;2023-04-03T07:16:55;6.95;;;1.90;;
53281;SDS011;39167;52.794;6.892;2023-04-03T07:19:22;8.77;;;2.05;;
53281;SDS011;39167;52.794;6.892;2023-04-03T07:21:52;4.60;;;1.80;;
53281;SDS011;39167;52.794;6.892;2023-04-03T07:24:18;7.35;;;2.15;;
53281;SDS011;39167;52.794;6.892;2023-04-03T07:26:43;2.72;;;1.40;;
53281;SDS011;39167;52.794;6.892;2023-04-03T07:29:10;10.25;;;1.70;;
53281;SDS011;39167;52.794;6.892;2023-04-03T07:31:36;6.47;;;2.05;;
53281;SDS011;39167;52.794;6.892;2023-04-03T07:34:03;8.40;;;2.58;;
53281;SDS011;39167;52.794;6.892;2023-04-03T07:36:29;5.93;;;2.00;;
53281;SDS011;39167;52.794;6.892;2023-04-03T07:38:58;6.93;;;2.00;;
53281;SDS011;39167;52.794;6.892;2023-04-03T07:41:24;9.38;;;2.03;;
53281;SDS011;39167;52.794;6.892;2023-04-03T07:43:49;3.45;;;1.25;;
53281;SDS011;39167;52.794;6.892;2023-04-03T07:46:15;7.55;;;1.60;;
53281;SDS011;39167;52.794;6.892;2023-04-03T07:48:42;4.43;;;1.80;;
53281;SDS011;39167;52.794;6.892;2023-04-03T07:51:09;7.60;;;1.88;;
53281;SDS011;39167;52.794;6.892;2023-04-03T07:53:35;8.55;;;1.67;;
53281;SDS011;39167;52.794;6.892;2023-04-03T07:56:01;5.90;;;2.00;;
53281;SDS011;39167;52.794;6.892;2023-04-03T07:58:27;6.72;;;1.50;;
53281;SDS011;39167;52.794;6.892;2023-04-03T08:00:53;9.30;;;1.75;;
53281;SDS011;39167;52.794;6.892;2023-04-03T08:03:19;3.72;;;1.30;;
53281;SDS011;39167;52.794;6.892;2023-04-03T08:05:46;6.32;;;1.23;;
53281;SDS011;39167;52.794;6.892;2023-04-03T08:08:15;6.70;;;1.30;;
53281;SDS011;39167;52.794;6.892;2023-04-03T08:10:43;5.20;;;1.45;;
53281;SDS011;39167;52.794;6.892;2023-04-03T08:13:09;6.80;;;1.40;;
53281;SDS011;39167;52.794;6.892;2023-04-03T08:15:35;6.22;;;1.52;;
53281;SDS011;39167;52.794;6.892;2023-04-03T08:18:02;4.25;;;1.40;;
53281;SDS011;39167;52.794;6.892;2023-04-03T08:20:28;4.32;;;1.20;;
53281;SDS011;39167;52.794;6.892;2023-04-03T08:22:54;4.38;;;1.30;;
53281;SDS011;39167;52.794;6.892;2023-04-03T08:25:20;4.20;;;1.25;;
53281;SDS011;39167;52.794;6.892;2023-04-03T08:27:46;3.72;;;1.30;;
53281;SDS011;39167;52.794;6.892;2023-04-03T08:30:12;5.68;;;1.33;;
53281;SDS011;39167;52.794;6.892;2023-04-03T08:32:38;4.13;;;1.30;;
53281;SDS011;39167;52.794;6.892;2023-04-03T08:35:07;5.35;;;1.15;;
53281;SDS011;39167;52.794;6.892;2023-04-03T08:37:35;8.48;;;1.13;;
53281;SDS011;39167;52.794;6.892;2023-04-03T08:40:02;2.10;;;0.95;;
53281;SDS011;39167;52.794;6.892;2023-04-03T08:42:41;3.47;;;1.00;;
53281;SDS011;39167;52.794;6.892;2023-04-03T08:45:23;5.72;;;1.25;;
53281;SDS011;39167;52.794;6.892;2023-04-03T08:48:00;5.47;;;1.35;;
53281;SDS011;39167;52.794;6.892;2023-04-03T08:53:28;2.42;;;0.88;;
53281;SDS011;39167;52.794;6.892;2023-04-03T08:55:57;4.80;;;1.30;;
53281;SDS011;39167;52.794;6.892;2023-04-03T08:58:29;3.70;;;0.98;;
53281;SDS011;39167;52.794;6.892;2023-04-03T09:01:07;3.13;;;0.82;;
53281;SDS011;39167;52.794;6.892;2023-04-03T09:04:00;5.03;;;0.90;;
53281;SDS011;39167;52.794;6.892;2023-04-03T09:06:27;2.47;;;1.10;;
53281;SDS011;39167;52.794;6.892;2023-04-03T09:11:36;2.40;;;0.93;;
53281;SDS011;39167;52.794;6.892;2023-04-03T09:14:24;5.57;;;0.85;;
53281;SDS011;39167;52.794;6.892;2023-04-03T09:19:30;5.35;;;1.20;;
53281;SDS011;39167;52.794;6.892;2023-04-03T09:24:40;1.98;;;0.75;;
53281;SDS011;39167;52.794;6.892;2023-04-03T09:27:09;4.43;;;0.90;;
53281;SDS011;39167;52.794;6.892;2023-04-03T09:29:39;2.95;;;0.90;;
53281;SDS011;39167;52.794;6.892;2023-04-03T09:32:17;3.63;;;0.98;;
53281;SDS011;39167;52.794;6.892;2023-04-03T09:34:50;2.65;;;1.05;;
53281;SDS011;39167;52.794;6.892;2023-04-03T09:37:53;8.30;;;1.20;;
53281;SDS011;39167;52.794;6.892;2023-04-03T09:42:51;2.88;;;0.82;;
53281;SDS011;39167;52.794;6.892;2023-04-03T09:45:31;5.03;;;1.10;;
53281;SDS011;39167;52.794;6.892;2023-04-03T09:53:33;4.75;;;1.42;;
53281;SDS011;39167;52.794;6.892;2023-04-03T09:55:59;1.70;;;0.63;;
53281;SDS011;39167;52.794;6.892;2023-04-03T09:58:32;3.30;;;0.90;;
53281;SDS011;39167;52.794;6.892;2023-04-03T10:01:03;2.90;;;0.98;;
53281;SDS011;39167;52.794;6.892;2023-04-03T10:03:33;2.50;;;0.95;;
53281;SDS011;39167;52.794;6.892;2023-04-03T10:06:09;3.47;;;0.95;;
53281;SDS011;39167;52.794;6.892;2023-04-03T10:08:58;1.70;;;0.70;;
53281;SDS011;39167;52.794;6.892;2023-04-03T10:11:31;3.70;;;0.73;;
53281;SDS011;39167;52.794;6.892;2023-04-03T10:14:02;3.28;;;0.95;;
53281;SDS011;39167;52.794;6.892;2023-04-03T10:21:50;4.40;;;1.00;;
53281;SDS011;39167;52.794;6.892;2023-04-03T10:24:52;3.17;;;0.95;;
53281;SDS011;39167;52.794;6.892;2023-04-03T10:27:39;1.50;;;0.77;;
53281;SDS011;39167;52.794;6.892;2023-04-03T10:35:56;2.33;;;0.93;;
53281;SDS011;39167;52.794;6.892;2023-04-03T10:38:43;4.32;;;1.10;;
53281;SDS011;39167;52.794;6.892;2023-04-03T10:41:42;4.40;;;0.80;;
53281;SDS011;39167;52.794;6.892;2023-04-03T10:44:30;3.13;;;1.00;;
53281;SDS011;39167;52.794;6.892;2023-04-03T10:55:05;2.25;;;0.70;;
53281;SDS011;39167;52.794;6.892;2023-04-03T10:57:47;3.90;;;1.00;;
53281;SDS011;39167;52.794;6.892;2023-04-03T11:00:16;3.85;;;1.20;;
53281;SDS011;39167;52.794;6.892;2023-04-03T11:02:52;3.58;;;0.90;;
53281;SDS011;39167;52.794;6.892;2023-04-03T11:05:26;2.37;;;0.90;;
53281;SDS011;39167;52.794;6.892;2023-04-03T11:08:13;5.60;;;1.33;;
53281;SDS011;39167;52.794;6.892;2023-04-03T11:10:49;2.83;;;0.88;;
53281;SDS011;39167;52.794;6.892;2023-04-03T11:13:24;3.60;;;0.90;;
53281;SDS011;39167;52.794;6.892;2023-04-03T11:16:05;2.45;;;1.02;;
53281;SDS011;39167;52.794;6.892;2023-04-03T11:18:36;3.08;;;0.70;;
53281;SDS011;39167;52.794;6.892;2023-04-03T11:21:27;3.13;;;0.88;;
53281;SDS011;39167;52.794;6.892;2023-04-03T11:26:35;2.97;;;1.02;;
53281;SDS011;39167;52.794;6.892;2023-04-03T11:29:09;4.57;;;0.82;;
53281;SDS011;39167;52.794;6.892;2023-04-03T11:34:33;3.35;;;1.10;;
53281;SDS011;39167;52.794;6.892;2023-04-03T11:37:14;5.60;;;0.98;;
53281;SDS011;39167;52.794;6.892;2023-04-03T11:39:55;5.63;;;1.10;;
53281;SDS011;39167;52.794;6.892;2023-04-03T11:42:30;3.33;;;1.10;;
53281;SDS011;39167;52.794;6.892;2023-04-03T11:50:39;3.65;;;0.95;;
53281;SDS011;39167;52.794;6.892;2023-04-03T11:56:00;2.22;;;0.90;;
53281;SDS011;39167;52.794;6.892;2023-04-03T11:59:14;3.63;;;1.00;;
53281;SDS011;39167;52.794;6.892;2023-04-03T12:01:46;4.22;;;1.02;;
53281;SDS011;39167;52.794;6.892;2023-04-03T12:04:23;4.68;;;1.10;;
53281;SDS011;39167;52.794;6.892;2023-04-03T12:06:59;2.95;;;1.02;;
53281;SDS011;39167;52.794;6.892;2023-04-03T12:12:28;4.50;;;1.25;;
53281;SDS011;39167;52.794;6.892;2023-04-03T12:17:51;2.92;;;1.00;;
53281;SDS011;39167;52.794;6.892;2023-04-03T12:23:24;3.17;;;1.10;;
53281;SDS011;39167;52.794;6.892;2023-04-03T12:29:25;2.55;;;1.08;;
53281;SDS011;39167;52.794;6.892;2023-04-03T12:34:42;3.78;;;0.90;;
53281;SDS011;39167;52.794;6.892;2023-04-03T12:37:34;6.32;;;1.60;;
53281;SDS011;39167;52.794;6.892;2023-04-03T12:40:02;2.33;;;0.85;;
53281;SDS011;39167;52.794;6.892;2023-04-03T12:42:55;2.13;;;0.90;;
53281;SDS011;39167;52.794;6.892;2023-04-03T12:45:59;3.72;;;1.00;;
53281;SDS011;39167;52.794;6.892;2023-04-03T12:51:14;1.90;;;0.90;;
53281;SDS011;39167;52.794;6.892;2023-04-03T12:53:43;3.92;;;1.23;;
53281;SDS011;39167;52.794;6.892;2023-04-03T12:58:52;10.30;;;1.55;;
53281;SDS011;39167;52.794;6.892;2023-04-03T13:01:38;4.15;;;1.08;;
53281;SDS011;39167;52.794;6.892;2023-04-03T13:04:03;5.40;;;1.75;;
53281;SDS011;39167;52.794;6.892;2023-04-03T13:06:32;2.60;;;1.13;;
53281;SDS011;39167;52.794;6.892;2023-04-03T13:09:02;5.55;;;1.10;;
53281;SDS011;39167;52.794;6.892;2023-04-03T13:11:33;3.75;;;1.42;;
53281;SDS011;39167;52.794;6.892;2023-04-03T13:14:14;3.13;;;1.00;;
53281;SDS011;39167;52.794;6.892;2023-04-03T13:16:55;4.35;;;1.45;;
53281;SDS011;39167;52.794;6.892;2023-04-03T13:19:22;3.90;;;1.33;;
53281;SDS011;39167;52.794;6.892;2023-04-03T13:21:51;5.10;;;1.23;;
53281;SDS011;39167;52.794;6.892;2023-04-03T13:24:30;10.90;;;1.25;;
53281;SDS011;39167;52.794;6.892;2023-04-03T13:26:58;2.88;;;1.20;;
53281;SDS011;39167;52.794;6.892;2023-04-03T13:29:29;4.68;;;1.23;;
53281;SDS011;39167;52.794;6.892;2023-04-03T13:31:57;3.00;;;1.08;;
53281;SDS011;39167;52.794;6.892;2023-04-03T13:34:25;2.10;;;1.08;;
53281;SDS011;39167;52.794;6.892;2023-04-03T13:39:37;2.85;;;1.20;;
53281;SDS011;39167;52.794;6.892;2023-04-03T13:42:23;3.53;;;1.30;;
53281;SDS011;39167;52.794;6.892;2023-04-03T13:47:49;4.22;;;1.08;;
53281;SDS011;39167;52.794;6.892;2023-04-03T13:50:21;3.80;;;1.40;;
53281;SDS011;39167;52.794;6.892;2023-04-03T13:53:00;5.15;;;1.13;;
53281;SDS011;39167;52.794;6.892;2023-04-03T13:55:29;3.67;;;1.23;;
53281;SDS011;39167;52.794;6.892;2023-04-03T13:58:01;2.03;;;0.77;;
53281;SDS011;39167;52.794;6.892;2023-04-03T14:00:49;5.15;;;1.30;;
53281;SDS011;39167;52.794;6.892;2023-04-03T14:03:21;3.03;;;1.27;;
53281;SDS011;39167;52.794;6.892;2023-04-03T14:05:55;4.45;;;1.67;;
53281;SDS011;39167;52.794;6.892;2023-04-03T14:08:21;2.72;;;1.30;;
53281;SDS011;39167;52.794;6.892;2023-04-03T14:10:47;4.55;;;1.50;;
53281;SDS011;39167;52.794;6.892;2023-04-03T14:13:15;2.13;;;1.10;;
53281;SDS011;39167;52.794;6.892;2023-04-03T14:15:43;2.63;;;1.20;;
53281;SDS011;39167;52.794;6.892;2023-04-03T14:18:18;4.18;;;1.80;;
53281;SDS011;39167;52.794;6.892;2023-04-03T14:20:46;4.30;;;1.30;;
53281;SDS011;39167;52.794;6.892;2023-04-03T14:23:13;3.42;;;1.42;;
53281;SDS011;39167;52.794;6.892;2023-04-03T14:25:39;3.25;;;1.20;;
53281;SDS011;39167;52.794;6.892;2023-04-03T14:28:13;3.88;;;1.27;;
53281;SDS011;39167;52.794;6.892;2023-04-03T14:30:44;2.78;;;1.25;;
53281;SDS011;39167;52.794;6.892;2023-04-03T14:33:13;3.42;;;1.15;;
53281;SDS011;39167;52.794;6.892;2023-04-03T14:35:41;3.67;;;1.20;;
53281;SDS011;39167;52.794;6.892;2023-04-03T14:38:12;2.40;;;1.20;;
53281;SDS011;39167;52.794;6.892;2023-04-03T14:40:50;2.97;;;1.02;;
53281;SDS011;39167;52.794;6.892;2023-04-03T14:43:17;3.95;;;1.40;;
53281;SDS011;39167;52.794;6.892;2023-04-03T14:45:43;3.70;;;1.42;;
53281;SDS011;39167;52.794;6.892;2023-04-03T14:48:11;3.47;;;1.35;;
53281;SDS011;39167;52.794;6.892;2023-04-03T14:50:43;3.90;;;1.30;;
53281;SDS011;39167;52.794;6.892;2023-04-03T14:53:10;4.80;;;1.10;;
53281;SDS011;39167;52.794;6.892;2023-04-03T14:55:37;6.75;;;1.75;;
53281;SDS011;39167;52.794;6.892;2023-04-03T14:58:03;7.63;;;1.42;;
53281;SDS011;39167;52.794;6.892;2023-04-03T15:00:29;6.53;;;1.60;;
53281;SDS011;39167;52.794;6.892;2023-04-03T15:02:55;4.10;;;1.33;;
53281;SDS011;39167;52.794;6.892;2023-04-03T15:05:21;3.88;;;1.20;;
53281;SDS011;39167;52.794;6.892;2023-04-03T15:07:48;3.38;;;1.83;;
53281;SDS011;39167;52.794;6.892;2023-04-03T15:10:21;4.18;;;1.35;;
53281;SDS011;39167;52.794;6.892;2023-04-03T15:12:55;3.25;;;1.30;;
53281;SDS011;39167;52.794;6.892;2023-04-03T15:15:21;4.63;;;1.67;;
53281;SDS011;39167;52.794;6.892;2023-04-03T15:17:52;3.97;;;1.38;;
53281;SDS011;39167;52.794;6.892;2023-04-03T15:20:21;3.70;;;1.20;;
53281;SDS011;39167;52.794;6.892;2023-04-03T15:22:48;7.90;;;1.80;;
53281;SDS011;39167;52.794;6.892;2023-04-03T15:25:14;7.50;;;1.85;;
53281;SDS011;39167;52.794;6.892;2023-04-03T15:27:41;4.00;;;1.63;;
53281;SDS011;39167;52.794;6.892;2023-04-03T15:30:08;4.22;;;1.30;;
53281;SDS011;39167;52.794;6.892;2023-04-03T15:32:38;3.08;;;1.50;;
53281;SDS011;39167;52.794;6.892;2023-04-03T15:35:03;4.55;;;1.38;;
53281;SDS011;39167;52.794;6.892;2023-04-03T15:37:30;3.75;;;1.30;;
53281;SDS011;39167;52.794;6.892;2023-04-03T15:39:56;3.08;;;1.20;;
53281;SDS011;39167;52.794;6.892;2023-04-03T15:42:21;4.07;;;1.45;;
53281;SDS011;39167;52.794;6.892;2023-04-03T15:44:47;4.32;;;1.50;;
53281;SDS011;39167;52.794;6.892;2023-04-03T15:47:13;5.53;;;1.40;;
53281;SDS011;39167;52.794;6.892;2023-04-03T15:49:39;4.57;;;1.42;;
53281;SDS011;39167;52.794;6.892;2023-04-03T15:52:05;3.55;;;1.30;;
53281;SDS011;39167;52.794;6.892;2023-04-03T15:54:31;3.80;;;1.13;;
53281;SDS011;39167;52.794;6.892;2023-04-03T15:56:57;7.45;;;1.25;;
53281;SDS011;39167;52.794;6.892;2023-04-03T15:59:23;7.13;;;1.60;;
53281;SDS011;39167;52.794;6.892;2023-04-03T16:01:49;3.13;;;1.00;;
53281;SDS011;39167;52.794;6.892;2023-04-03T16:04:16;2.53;;;1.55;;
53281;SDS011;39167;52.794;6.892;2023-04-03T16:06:42;2.33;;;1.20;;
53281;SDS011;39167;52.794;6.892;2023-04-03T16:09:08;2.75;;;1.20;;
53281;SDS011;39167;52.794;6.892;2023-04-03T16:11:35;2.40;;;1.45;;
53281;SDS011;39167;52.794;6.892;2023-04-03T16:14:04;7.22;;;1.80;;
53281;SDS011;39167;52.794;6.892;2023-04-03T16:16:31;3.75;;;1.23;;
53281;SDS011;39167;52.794;6.892;2023-04-03T16:18:57;3.28;;;1.55;;
53281;SDS011;39167;52.794;6.892;2023-04-03T16:21:22;2.88;;;1.20;;
53281;SDS011;39167;52.794;6.892;2023-04-03T16:23:48;4.60;;;1.45;;
53281;SDS011;39167;52.794;6.892;2023-04-03T16:26:14;3.08;;;1.27;;